East Palestine, Ohio
Current Conditions -  °F | °C
As of 6:47 PM on Friday 31 Oct 2014 (Local Time) from KBVI Reporting Station
Drizzle Drizzle  
Wind Chill: 41°   Ceiling: 3700
Heat Index: 41°   Visibility: 10mi
Dew Point: 39°   Wind: 0mph
Humidity: 93%   Direction: NA
Pressure: 29.87"   Gusts: NA
Location:  40.83°N, 80.54°W
Report Text: KBVI 312247Z 00000KT 10SM DZ BKN037 OVC050 05/04 A2987
Loading
Personal Weather Stations






























Interactive Weather Map
Tropical Storm Tracking
New forecast layout! Learn more

10-Day Weather Forecast

Advertisements
Track Severe Weather on mobile